[xml][/xml]
The Bahamas Weekly Facebook The Bahamas Weekly Twitter
Bahamas Weather Last Updated: Dec 9, 2019 - 11:53:49 AM


Bahamas Aerodrome Forecast - Dec. 9th
By Bahamas Department Of Meteorology
Dec 9, 2019 - 6:40:30 AM

Email this article
 Mobile friendly page

BAHAMAS AREA FORECAST

VALID FOR 12 HOURS FROM 1200 UTC MONDAY 09TH DECEMBER 2019

SPECIAL FEATURES: HG PRESS RDG PRDCS MOD TO FRSH BRZS OVR BAH AS IT BLDS ACRS WTRN ATL OCN DRG PRD=
 
SIGNIFICANT WEATHER OVR BAHAMAS: FEW/SCT 018/028 SCT OCNL BKN 030/050 WI SFC WNDS E’LY 15-20 KT MNLY ACRS CNTRL/SE BAH PRDCNG ISOL SHRA
BRF IFR CONDS IN +SHRA WI MOD TURB OR GRTR XPCTD=

 
FRZLVL: ~13200 FEET TO ~14700 FEET ACROSS THE BAHAMAS

SUNSET: 5:19 PM…      SUNRISE: 6:44 AM. TUE…

BAHAMAS_AERODROME_FORECAST_1200_UTC_MONDAY.png


AERODROME FORECASTS

MYNN: 091045Z 0912/1012 10008KT 9000 SHRA BKN018 FM091800 10010KT 9999 VCSH SCT025 SCT030=

MYGF: 091045Z 0912/1012 12008KT 9999 FEW030 FM100000 11015KT 9999 VCSH BKN025=

MBGT: 091045Z 0912/1012 09015G25KT 9999 SCT017 PROB30 TEMPO 0918/0922 09018KT 9000 SHRA SCT015 BKN050=

MBPV: 091045Z 0912/1012 09015G25KT 9999 SCT017 PROB30 TEMPO 0918/0922 09018KT 9000 SHRA SCT015 BKN050=

ORIGINATED 091030 UTC FORECASTER: G. GREENE 

Bookmark and Share




© Copyright 2019 by thebahamasweekly.com

Top of Page

Receive our Top Stories



Preview | Powered by CommandBlast

Bahamas Weather
Latest Headlines
Special Marine Watch - Jan. 8th
Bahamas Public and Marine Forecast
Bahamas Marine Forecast - Dec. 20th
7 day forecast for the Bahamas - Dec. 19th - 25th
Severe weather thunderstorm warning for Ragged Island